createdAt,value
2017-03-15T00:00:39.706Z,0
2017-03-15T00:01:40.104Z,0
2017-03-15T00:02:40.515Z,0
2017-03-15T00:03:40.922Z,0
2017-03-15T00:04:41.331Z,0
2017-03-15T00:05:41.721Z,0
2017-03-15T00:06:42.129Z,0
2017-03-15T00:07:42.531Z,0
2017-03-15T00:08:42.931Z,0
2017-03-15T00:09:43.352Z,0
2017-03-15T00:10:43.759Z,0
2017-03-15T00:11:44.158Z,0
2017-03-15T00:12:44.593Z,0
2017-03-15T00:13:44.999Z,0
2017-03-15T00:14:45.405Z,0
2017-03-15T00:15:45.809Z,0
2017-03-15T00:16:46.202Z,0
2017-03-15T00:17:46.607Z,0
2017-03-15T00:18:47.036Z,0
2017-03-15T00:19:47.428Z,0
2017-03-15T00:20:47.837Z,0
2017-03-15T00:21:48.240Z,0
2017-03-15T00:22:48.654Z,0
2017-03-15T00:23:49.054Z,0
2017-03-15T00:24:49.462Z,0
2017-03-15T00:25:49.873Z,0
2017-03-15T00:26:50.360Z,0
2017-03-15T00:27:50.764Z,0
2017-03-15T00:28:51.158Z,0
2017-03-15T00:29:51.554Z,0
2017-03-15T00:30:51.958Z,0
2017-03-15T00:31:52.356Z,0
2017-03-15T00:32:52.759Z,0
2017-03-15T00:33:53.164Z,0
2017-03-15T00:34:53.564Z,0
2017-03-15T00:35:53.956Z,0
2017-03-15T00:36:54.358Z,0
2017-03-15T00:37:54.745Z,0
2017-03-15T00:38:55.154Z,0
2017-03-15T00:39:55.536Z,0
2017-03-15T00:40:55.943Z,0
2017-03-15T00:41:56.347Z,0
2017-03-15T00:42:56.757Z,0
2017-03-15T00:43:57.155Z,0
2017-03-15T00:44:57.554Z,0
2017-03-15T00:45:57.944Z,0
2017-03-15T00:46:58.362Z,0
2017-03-15T00:47:58.777Z,0
2017-03-15T00:48:59.188Z,0
2017-03-15T00:49:59.597Z,0
2017-03-15T00:50:59.996Z,0
2017-03-15T00:52:00.402Z,0
2017-03-15T00:53:00.811Z,0
2017-03-15T00:54:01.206Z,0
2017-03-15T00:55:01.611Z,0
2017-03-15T00:56:01.627Z,0
2017-03-15T00:57:02.030Z,0
2017-03-15T00:58:02.429Z,0
2017-03-15T00:59:02.836Z,0
2017-03-15T01:00:03.223Z,0
2017-03-15T01:01:03.626Z,0
2017-03-15T01:02:04.013Z,0
2017-03-15T01:03:04.422Z,0
2017-03-15T01:04:04.824Z,0
2017-03-15T01:05:05.243Z,0
2017-03-15T01:06:05.662Z,0
2017-03-15T01:07:06.064Z,0
2017-03-15T01:08:06.487Z,0
2017-03-15T01:09:06.889Z,0
2017-03-15T01:10:07.283Z,0
2017-03-15T01:11:07.692Z,0
2017-03-15T01:12:08.101Z,0
2017-03-15T01:13:08.517Z,0
2017-03-15T01:14:08.954Z,0
2017-03-15T01:15:09.344Z,0
2017-03-15T01:16:09.748Z,0
2017-03-15T01:17:10.155Z,0
2017-03-15T01:18:10.567Z,0
2017-03-15T01:19:10.971Z,0
2017-03-15T01:20:11.341Z,0
2017-03-15T01:21:11.761Z,0
2017-03-15T01:22:12.173Z,0
2017-03-15T01:23:12.567Z,0
2017-03-15T01:24:12.961Z,0
2017-03-15T01:25:13.364Z,0
2017-03-15T01:26:13.765Z,0
2017-03-15T01:27:14.188Z,0
2017-03-15T01:28:14.593Z,0
2017-03-15T01:29:15.002Z,0
2017-03-15T01:30:15.433Z,0
2017-03-15T01:31:15.832Z,0
2017-03-15T01:32:16.251Z,0
2017-03-15T01:33:16.659Z,0
2017-03-15T01:34:17.033Z,0
2017-03-15T01:35:17.446Z,0
2017-03-15T01:36:17.848Z,0
2017-03-15T01:37:18.257Z,0
2017-03-15T01:38:18.664Z,0
2017-03-15T01:39:19.080Z,0
2017-03-15T01:40:19.482Z,0
2017-03-15T01:41:19.887Z,0
2017-03-15T01:42:20.280Z,0
2017-03-15T01:43:20.682Z,0
2017-03-15T01:44:21.081Z,0
2017-03-15T01:45:21.482Z,0
2017-03-15T01:46:21.886Z,0
2017-03-15T01:47:22.285Z,0
2017-03-15T01:48:22.696Z,0
2017-03-15T01:49:23.080Z,0
2017-03-15T01:50:23.483Z,0
2017-03-15T01:51:23.891Z,0
2017-03-15T01:52:24.302Z,0
2017-03-15T01:53:24.709Z,0
2017-03-15T01:54:25.098Z,0
2017-03-15T01:55:25.515Z,0
2017-03-15T01:56:25.922Z,0
2017-03-15T01:57:26.326Z,0
2017-03-15T01:58:26.726Z,0
2017-03-15T01:59:27.122Z,0
2017-03-15T02:00:27.520Z,0
2017-03-15T02:01:27.950Z,0
2017-03-15T02:02:28.335Z,0
2017-03-15T02:03:28.736Z,0
2017-03-15T02:04:29.130Z,0
2017-03-15T02:05:29.559Z,0
2017-03-15T02:06:29.968Z,0
2017-03-15T02:07:30.383Z,0
2017-03-15T02:08:30.786Z,0
2017-03-15T02:09:31.187Z,0
2017-03-15T02:10:31.599Z,0
2017-03-15T02:11:32.015Z,0
2017-03-15T02:12:32.414Z,0
2017-03-15T02:13:32.813Z,0
2017-03-15T02:14:33.224Z,0
2017-03-15T02:15:33.642Z,0
2017-03-15T02:16:34.044Z,0
2017-03-15T02:17:34.458Z,0
2017-03-15T02:18:34.865Z,0
2017-03-15T02:19:35.247Z,0
2017-03-15T02:20:35.650Z,0
2017-03-15T02:21:36.048Z,0
2017-03-15T02:22:36.462Z,0
2017-03-15T02:23:36.878Z,0
2017-03-15T02:24:37.283Z,0
2017-03-15T02:25:37.684Z,0
2017-03-15T02:26:38.097Z,0
2017-03-15T02:27:38.489Z,0
2017-03-15T02:28:38.905Z,0
2017-03-15T02:29:39.310Z,0
2017-03-15T02:30:39.722Z,0
2017-03-15T02:31:40.121Z,0
2017-03-15T02:32:40.526Z,0
2017-03-15T02:33:40.930Z,0
2017-03-15T02:34:41.334Z,0
2017-03-15T02:35:41.746Z,0
2017-03-15T02:36:42.147Z,0
2017-03-15T02:37:42.542Z,0
2017-03-15T02:38:42.952Z,0
2017-03-15T02:39:43.369Z,0
2017-03-15T02:40:43.786Z,0
2017-03-15T02:41:44.197Z,0
2017-03-15T02:42:44.590Z,0
2017-03-15T02:43:44.990Z,0
2017-03-15T02:44:45.410Z,0
2017-03-15T02:45:45.834Z,0
2017-03-15T02:46:46.239Z,0
2017-03-15T02:47:46.638Z,0
2017-03-15T02:48:47.040Z,0
2017-03-15T02:49:47.450Z,0
2017-03-15T02:50:47.845Z,0
2017-03-15T02:51:48.256Z,0
2017-03-15T02:52:48.667Z,0
2017-03-15T02:53:49.080Z,0
2017-03-15T02:54:49.490Z,0
2017-03-15T02:55:49.889Z,0
2017-03-15T02:56:50.296Z,0
2017-03-15T02:57:50.697Z,0
2017-03-15T02:58:51.093Z,0
2017-03-15T02:59:51.489Z,0
2017-03-15T03:00:51.927Z,0
2017-03-15T03:01:52.319Z,0
2017-03-15T03:02:52.711Z,0
2017-03-15T03:03:53.120Z,0
2017-03-15T03:04:53.545Z,0
2017-03-15T03:05:53.936Z,0
2017-03-15T03:06:54.330Z,0
2017-03-15T03:07:54.735Z,0
2017-03-15T03:08:55.155Z,0
2017-03-15T03:09:55.563Z,0
2017-03-15T03:10:55.966Z,0
2017-03-15T03:11:56.382Z,0
2017-03-15T03:12:56.800Z,0
2017-03-15T03:13:57.214Z,0
2017-03-15T03:14:57.632Z,0
2017-03-15T03:15:58.045Z,0
2017-03-15T03:16:58.441Z,0
2017-03-15T03:17:58.836Z,0
2017-03-15T03:18:59.243Z,0
2017-03-15T03:19:59.647Z,0
2017-03-15T03:21:00.046Z,0
2017-03-15T03:22:00.449Z,0
2017-03-15T03:23:00.859Z,0
2017-03-15T03:24:01.267Z,0
2017-03-15T03:25:01.649Z,0
2017-03-15T03:26:02.064Z,0
2017-03-15T03:27:02.448Z,0
2017-03-15T03:28:02.851Z,0
2017-03-15T03:29:03.244Z,0
2017-03-15T03:30:03.648Z,0
2017-03-15T03:31:04.049Z,0
2017-03-15T03:32:04.447Z,0
2017-03-15T03:33:04.847Z,0
2017-03-15T03:34:05.231Z,0
2017-03-15T03:35:05.634Z,0
2017-03-15T03:36:06.048Z,0
2017-03-15T03:37:06.454Z,0
2017-03-15T03:38:06.842Z,0
2017-03-15T03:39:07.243Z,0
2017-03-15T03:40:07.640Z,0
2017-03-15T03:41:08.043Z,0
2017-03-15T03:42:08.449Z,0
2017-03-15T03:43:08.855Z,0
2017-03-15T03:44:09.274Z,0
2017-03-15T03:45:09.709Z,0
2017-03-15T03:46:10.117Z,0
2017-03-15T03:47:10.528Z,0
2017-03-15T03:48:10.949Z,0
2017-03-15T03:49:11.352Z,0
2017-03-15T03:50:11.795Z,0
2017-03-15T03:51:12.206Z,0
2017-03-15T03:52:12.613Z,0
2017-03-15T03:53:13.014Z,0
2017-03-15T03:54:13.420Z,0
2017-03-15T03:55:13.814Z,0
2017-03-15T03:56:14.230Z,0
2017-03-15T03:57:14.639Z,0
2017-03-15T03:58:15.046Z,0
2017-03-15T03:59:15.455Z,0
2017-03-15T04:00:16.113Z,0
2017-03-15T04:01:16.517Z,0
2017-03-15T04:02:16.915Z,0
2017-03-15T04:03:17.311Z,0
2017-03-15T04:04:17.759Z,0
2017-03-15T04:05:18.188Z,0
2017-03-15T04:06:18.599Z,0
2017-03-15T04:07:18.997Z,0
2017-03-15T04:08:19.411Z,0
2017-03-15T04:09:19.812Z,0
2017-03-15T04:10:20.205Z,0
2017-03-15T04:11:20.639Z,0
2017-03-15T04:12:21.054Z,0
2017-03-15T04:13:21.459Z,0
2017-03-15T04:14:21.855Z,0
2017-03-15T04:15:22.252Z,0
2017-03-15T04:16:22.661Z,0
2017-03-15T04:17:23.077Z,0
2017-03-15T04:18:23.484Z,0
2017-03-15T04:19:23.901Z,0
2017-03-15T04:20:24.318Z,0
2017-03-15T04:21:24.729Z,0
2017-03-15T04:22:25.120Z,0
2017-03-15T04:23:25.527Z,0
2017-03-15T04:24:25.940Z,0
2017-03-15T04:25:26.354Z,0
2017-03-15T04:26:26.733Z,0
2017-03-15T04:27:27.132Z,0
2017-03-15T04:28:27.542Z,0
2017-03-15T04:29:27.922Z,0
2017-03-15T04:30:28.340Z,0
2017-03-15T04:31:28.751Z,0
2017-03-15T04:32:29.155Z,0
2017-03-15T04:33:29.554Z,0
2017-03-15T04:34:29.954Z,0
2017-03-15T04:35:30.369Z,0
2017-03-15T04:36:30.780Z,0
2017-03-15T04:37:31.175Z,0
2017-03-15T04:38:31.589Z,0
2017-03-15T04:39:31.999Z,0
2017-03-15T04:40:32.422Z,0
2017-03-15T04:41:32.823Z,0
2017-03-15T04:42:33.230Z,0
2017-03-15T04:43:33.627Z,0
2017-03-15T04:44:34.026Z,0
2017-03-15T04:45:34.429Z,0
2017-03-15T04:46:34.824Z,0
2017-03-15T04:47:35.227Z,0
2017-03-15T04:48:35.641Z,0
2017-03-15T04:49:36.055Z,0
2017-03-15T04:50:36.466Z,0
2017-03-15T04:51:36.879Z,0
2017-03-15T04:52:37.269Z,0
2017-03-15T04:53:37.676Z,0
2017-03-15T04:54:38.073Z,0
2017-03-15T04:55:38.480Z,0
2017-03-15T04:56:38.880Z,0
2017-03-15T04:57:39.273Z,4
2017-03-15T04:58:39.669Z,4
2017-03-15T04:59:40.076Z,0
2017-03-15T05:00:40.191Z,4
2017-03-15T05:01:40.599Z,4
2017-03-15T05:02:41.009Z,4
2017-03-15T05:03:41.424Z,8
2017-03-15T05:04:41.830Z,4
2017-03-15T05:05:42.444Z,4
2017-03-15T05:06:42.255Z,8
2017-03-15T05:07:42.659Z,8
2017-03-15T05:08:43.053Z,12
2017-03-15T05:09:43.452Z,12
2017-03-15T05:10:43.860Z,12
2017-03-15T05:11:44.253Z,16
2017-03-15T05:12:44.657Z,16
2017-03-15T05:13:45.066Z,20
2017-03-15T05:14:45.475Z,24
2017-03-15T05:15:45.874Z,28
2017-03-15T05:16:46.266Z,32
2017-03-15T05:17:46.674Z,32
2017-03-15T05:18:47.071Z,36
2017-03-15T05:19:47.474Z,36
2017-03-15T05:20:47.878Z,40
2017-03-15T05:21:48.273Z,44
2017-03-15T05:22:48.668Z,44
2017-03-15T05:23:49.074Z,48
2017-03-15T05:24:49.485Z,52
2017-03-15T05:25:49.894Z,52
2017-03-15T05:26:50.300Z,60
2017-03-15T05:27:50.716Z,64
2017-03-15T05:28:51.121Z,72
2017-03-15T05:29:51.537Z,76
2017-03-15T05:30:51.954Z,84
2017-03-15T05:31:52.392Z,92
2017-03-15T05:32:52.793Z,96
2017-03-15T05:33:53.191Z,104
2017-03-15T05:34:53.597Z,104
2017-03-15T05:35:53.991Z,108
2017-03-15T05:36:54.378Z,120
2017-03-15T05:37:54.775Z,128
2017-03-15T05:38:55.171Z,136
2017-03-15T05:39:55.576Z,148
2017-03-15T05:40:55.976Z,164
2017-03-15T05:41:56.375Z,180
2017-03-15T05:42:56.773Z,196
2017-03-15T05:43:57.188Z,212
2017-03-15T05:44:57.589Z,220
2017-03-15T05:45:57.983Z,228
2017-03-15T05:46:58.415Z,232
2017-03-15T05:47:58.821Z,248
2017-03-15T05:48:59.228Z,256
2017-03-15T05:49:59.636Z,272
2017-03-15T05:51:00.022Z,308
2017-03-15T05:52:00.416Z,336
2017-03-15T05:53:00.825Z,364
2017-03-15T05:54:01.244Z,380
2017-03-15T05:55:01.639Z,404
2017-03-15T05:56:02.029Z,436
2017-03-15T05:57:02.436Z,484
2017-03-15T05:58:02.839Z,532
2017-03-15T05:59:03.231Z,564
2017-03-15T06:00:03.635Z,612
2017-03-15T06:01:03.645Z,620
2017-03-15T06:02:04.092Z,600
2017-03-15T06:03:04.526Z,584
2017-03-15T06:04:04.899Z,596
2017-03-15T06:05:05.303Z,632
2017-03-15T06:06:05.703Z,692
2017-03-15T06:07:06.110Z,764
2017-03-15T06:08:06.517Z,816
2017-03-15T06:09:06.924Z,860
2017-03-15T06:10:07.347Z,936
2017-03-15T06:11:07.739Z,1016
2017-03-15T06:12:08.157Z,1076
2017-03-15T06:13:08.558Z,1092
2017-03-15T06:14:09.003Z,1140
2017-03-15T06:15:09.390Z,1168
2017-03-15T06:16:09.838Z,1196
2017-03-15T06:17:10.249Z,1120
2017-03-15T06:18:10.651Z,1076
2017-03-15T06:19:11.048Z,1188
2017-03-15T06:20:11.448Z,1240
2017-03-15T06:21:11.833Z,1324
2017-03-15T06:22:12.236Z,1456
2017-03-15T06:23:12.647Z,1512
2017-03-15T06:24:13.049Z,1596
2017-03-15T06:25:13.443Z,1648
2017-03-15T06:26:13.847Z,1732
2017-03-15T06:27:14.253Z,1816
2017-03-15T06:28:15.136Z,1880
2017-03-15T06:29:15.172Z,1948
2017-03-15T06:30:15.210Z,2024
2017-03-15T06:31:15.255Z,2140
2017-03-15T06:32:15.265Z,2192
2017-03-15T06:33:15.365Z,2176
2017-03-15T06:34:15.318Z,2192
2017-03-15T06:35:15.378Z,2212
2017-03-15T06:36:15.377Z,2260
2017-03-15T06:37:15.392Z,2248
2017-03-15T06:38:15.437Z,2284
2017-03-15T06:39:15.472Z,2348
2017-03-15T06:40:15.490Z,2416
2017-03-15T06:41:15.519Z,2492
2017-03-15T06:42:15.549Z,2548
2017-03-15T06:43:15.596Z,2624
2017-03-15T06:44:15.618Z,2616
2017-03-15T06:45:15.641Z,2620
2017-03-15T06:46:15.683Z,2744
2017-03-15T06:47:15.709Z,2924
2017-03-15T06:48:15.741Z,3012
2017-03-15T06:49:15.793Z,3224
2017-03-15T06:50:15.813Z,3320
2017-03-15T06:51:15.835Z,3416
2017-03-15T06:52:15.903Z,3388
2017-03-15T06:53:15.884Z,3480
2017-03-15T06:54:15.940Z,3492
2017-03-15T06:55:15.948Z,3432
2017-03-15T06:56:15.997Z,3376
2017-03-15T06:57:16.051Z,3392
2017-03-15T06:58:16.049Z,3464
2017-03-15T06:59:16.073Z,3264
2017-03-15T07:00:16.110Z,3024
2017-03-15T07:01:16.138Z,2960
2017-03-15T07:02:16.163Z,2964
2017-03-15T07:03:16.209Z,2972
2017-03-15T07:04:16.248Z,2984
2017-03-15T07:05:16.267Z,2728
2017-03-15T07:06:16.319Z,2496
2017-03-15T07:07:16.310Z,2384
2017-03-15T07:08:16.344Z,2312
2017-03-15T07:09:16.380Z,2252
2017-03-15T07:10:16.423Z,2268
2017-03-15T07:11:16.451Z,2428
2017-03-15T07:12:16.477Z,2600
2017-03-15T07:13:16.512Z,3308
2017-03-15T07:14:16.533Z,4772
2017-03-15T07:15:16.573Z,6200
2017-03-15T07:16:16.598Z,5844
2017-03-15T07:17:16.621Z,6616
2017-03-15T07:18:16.661Z,6716
2017-03-15T07:19:16.680Z,7748
2017-03-15T07:20:16.720Z,8524
2017-03-15T07:21:16.748Z,8648
2017-03-15T07:22:16.786Z,10068
2017-03-15T07:23:16.828Z,10396
2017-03-15T07:24:16.854Z,6736
2017-03-15T07:25:16.867Z,7980
2017-03-15T07:26:16.916Z,8184
2017-03-15T07:27:16.937Z,7708
2017-03-15T07:28:16.968Z,7724
2017-03-15T07:29:17.000Z,8204
2017-03-15T07:30:17.039Z,7488
2017-03-15T07:31:17.076Z,5708
2017-03-15T07:32:17.087Z,7832
2017-03-15T07:33:17.136Z,6176
2017-03-15T07:34:17.173Z,5804
2017-03-15T07:35:17.191Z,6480
2017-03-15T07:36:17.216Z,7304
2017-03-15T07:37:17.271Z,7500
2017-03-15T07:38:17.299Z,7152
2017-03-15T07:39:17.331Z,5096
2017-03-15T07:40:17.354Z,7132
2017-03-15T07:41:17.393Z,8220
2017-03-15T07:42:17.438Z,7712
2017-03-15T07:43:17.467Z,5532
2017-03-15T07:44:17.498Z,6412
2017-03-15T07:45:17.511Z,8564
2017-03-15T07:46:17.553Z,5992
2017-03-15T07:47:17.599Z,6276
2017-03-15T07:48:17.614Z,8052
2017-03-15T07:49:17.665Z,7604
2017-03-15T07:50:17.853Z,7564
2017-03-15T07:51:17.735Z,6940
2017-03-15T07:52:17.767Z,6648
2017-03-15T07:53:17.806Z,6644
2017-03-15T07:54:17.823Z,5680
2017-03-15T07:55:17.975Z,5444
2017-03-15T07:56:17.916Z,5692
2017-03-15T07:57:17.939Z,7456
2017-03-15T07:58:17.963Z,6820
2017-03-15T07:59:18.008Z,6716
2017-03-15T08:00:18.031Z,6928
2017-03-15T08:01:18.082Z,7256
2017-03-15T08:02:18.106Z,7340
2017-03-15T08:03:18.139Z,7952
2017-03-15T08:04:18.174Z,6284
2017-03-15T08:05:18.214Z,6172
2017-03-15T08:06:18.241Z,2944
2017-03-15T08:07:18.289Z,3652
2017-03-15T08:08:18.318Z,6240
2017-03-15T08:09:18.336Z,7264
2017-03-15T08:10:18.412Z,5624
2017-03-15T08:11:18.412Z,3640
2017-03-15T08:12:18.432Z,2740
2017-03-15T08:13:18.487Z,3152
2017-03-15T08:14:18.523Z,5136
2017-03-15T08:15:18.530Z,5444
2017-03-15T08:16:18.590Z,6236
2017-03-15T08:17:18.619Z,7732
2017-03-15T08:18:18.634Z,8840
2017-03-15T08:19:18.709Z,6620
2017-03-15T08:20:18.719Z,7508
2017-03-15T08:21:18.734Z,7908
2017-03-15T08:22:18.789Z,7568
2017-03-15T08:23:18.821Z,8116
2017-03-15T08:24:18.841Z,9360
2017-03-15T08:25:18.906Z,7280
2017-03-15T08:26:18.908Z,3468
2017-03-15T08:27:18.947Z,4620
2017-03-15T08:28:18.968Z,4224
2017-03-15T08:29:19.020Z,2904
2017-03-15T08:30:19.133Z,3108
2017-03-15T08:31:19.070Z,4556
2017-03-15T08:32:19.108Z,5936
2017-03-15T08:33:19.129Z,7160
2017-03-15T08:34:19.173Z,5584
2017-03-15T08:35:19.501Z,5784
2017-03-15T08:36:19.227Z,10308
2017-03-15T08:37:19.289Z,11432
2017-03-15T08:38:19.303Z,11772
2017-03-15T08:39:19.341Z,12204
2017-03-15T08:40:19.488Z,11728
2017-03-15T08:41:19.415Z,10680
2017-03-15T08:42:19.438Z,10872
2017-03-15T08:43:19.466Z,10724
2017-03-15T08:44:19.528Z,11064
2017-03-15T08:45:19.856Z,10920
2017-03-15T08:46:19.590Z,10436
2017-03-15T08:47:19.637Z,10832
2017-03-15T08:48:19.675Z,11672
2017-03-15T08:49:19.696Z,12344
2017-03-15T08:50:19.733Z,7768
2017-03-15T08:51:19.764Z,7308
2017-03-15T08:52:19.817Z,7472
2017-03-15T08:53:19.859Z,7880
2017-03-15T08:54:19.893Z,5784
2017-03-15T08:55:19.939Z,4080
2017-03-15T08:56:19.969Z,4280
2017-03-15T08:57:20.006Z,4460
2017-03-15T08:58:20.038Z,5496
2017-03-15T08:59:20.066Z,5256
2017-03-15T09:00:20.088Z,6364
2017-03-15T09:01:20.188Z,7224
2017-03-15T09:02:20.166Z,11564
2017-03-15T09:03:20.236Z,7056
2017-03-15T09:04:20.221Z,11308
2017-03-15T09:05:20.293Z,11680
2017-03-15T09:06:20.329Z,10944
2017-03-15T09:07:20.353Z,11452
2017-03-15T09:08:20.385Z,12304
2017-03-15T09:09:20.455Z,13524
2017-03-15T09:10:20.476Z,14624
2017-03-15T09:11:20.525Z,10208
2017-03-15T09:12:20.551Z,5308
2017-03-15T09:13:20.593Z,5796
2017-03-15T09:14:20.632Z,5616
2017-03-15T09:15:20.681Z,12108
2017-03-15T09:16:20.850Z,12836
2017-03-15T09:17:20.763Z,13020
2017-03-15T09:18:20.782Z,14528
2017-03-15T09:19:20.824Z,9264
2017-03-15T09:20:20.861Z,13256
2017-03-15T09:21:21.032Z,16800
2017-03-15T09:22:20.947Z,9196
2017-03-15T09:23:20.981Z,19040
2017-03-15T09:24:21.028Z,6844
2017-03-15T09:25:21.055Z,5792
2017-03-15T09:26:21.197Z,17472
2017-03-15T09:27:21.136Z,20416
2017-03-15T09:28:21.174Z,24992
2017-03-15T09:29:21.223Z,36800
2017-03-15T09:30:21.263Z,48672
2017-03-15T09:31:21.395Z,52192
2017-03-15T09:32:21.341Z,48736
2017-03-15T09:33:21.380Z,42688
2017-03-15T09:34:21.407Z,38944
2017-03-15T09:35:21.462Z,10024
2017-03-15T09:36:21.496Z,40864
2017-03-15T09:37:21.543Z,36896
2017-03-15T09:38:21.586Z,35424
2017-03-15T09:39:21.637Z,29504
2017-03-15T09:40:21.664Z,8244
2017-03-15T09:41:21.694Z,29664
2017-03-15T09:42:21.743Z,10516
2017-03-15T09:43:21.783Z,33824
2017-03-15T09:44:21.835Z,33056
2017-03-15T09:45:22.167Z,10964
2017-03-15T09:46:21.903Z,14624
2017-03-15T09:47:21.968Z,36512
2017-03-15T09:48:21.990Z,10400
2017-03-15T09:49:22.030Z,7904
2017-03-15T09:50:22.064Z,10124
2017-03-15T09:51:22.108Z,35744
2017-03-15T09:52:22.158Z,5068
2017-03-15T09:53:22.189Z,35680
2017-03-15T09:54:22.248Z,35328
2017-03-15T09:55:22.422Z,33728
2017-03-15T09:56:22.312Z,34592
2017-03-15T09:57:22.349Z,33088
2017-03-15T09:58:22.393Z,21824
2017-03-15T09:59:22.438Z,11104
2017-03-15T10:00:22.626Z,13236
2017-03-15T10:01:22.493Z,38400
2017-03-15T10:02:22.560Z,30848
2017-03-15T10:03:22.599Z,7220
2017-03-15T10:04:22.637Z,10704
2017-03-15T10:05:22.829Z,31520
2017-03-15T10:06:22.701Z,7208
2017-03-15T10:07:22.775Z,12368
2017-03-15T10:08:22.825Z,16928
2017-03-15T10:09:22.844Z,9712
2017-03-15T10:10:23.125Z,37824
2017-03-15T10:11:22.925Z,25568
2017-03-15T10:12:22.953Z,5572
2017-03-15T10:13:22.996Z,8184
2017-03-15T10:14:23.027Z,18976
2017-03-15T10:15:23.048Z,19040
2017-03-15T10:16:23.122Z,35968
2017-03-15T10:17:23.145Z,5244
2017-03-15T10:18:23.185Z,5060
2017-03-15T10:19:23.222Z,43488
2017-03-15T10:20:23.403Z,42336
2017-03-15T10:21:23.304Z,43584
2017-03-15T10:22:23.335Z,45248
2017-03-15T10:23:23.377Z,44608
2017-03-15T10:24:23.406Z,43520
2017-03-15T10:25:23.607Z,43584
2017-03-15T10:26:23.482Z,45088
2017-03-15T10:27:23.522Z,45536
2017-03-15T10:28:23.547Z,44832
2017-03-15T10:29:23.600Z,43712
2017-03-15T10:30:23.941Z,10236
2017-03-15T10:31:23.674Z,43328
2017-03-15T10:32:23.713Z,15360
2017-03-15T10:33:23.785Z,41408
2017-03-15T10:34:23.783Z,44736
2017-03-15T10:35:23.944Z,44128
2017-03-15T10:36:23.877Z,45792
2017-03-15T10:37:23.878Z,44896
2017-03-15T10:38:23.925Z,42336
2017-03-15T10:39:23.957Z,41952
2017-03-15T10:40:24.012Z,5940
2017-03-15T10:41:24.032Z,8244
2017-03-15T10:42:24.074Z,43232
2017-03-15T10:43:24.128Z,44000
2017-03-15T10:44:24.148Z,44800
2017-03-15T10:45:24.187Z,44800
2017-03-15T10:46:24.236Z,44672
2017-03-15T10:47:24.264Z,44256
2017-03-15T10:48:24.300Z,25856
2017-03-15T10:49:24.336Z,8564
2017-03-15T10:50:24.384Z,12616
2017-03-15T10:51:24.398Z,6128
2017-03-15T10:52:24.450Z,5680
2017-03-15T10:53:24.467Z,5216
2017-03-15T10:54:24.516Z,5032
2017-03-15T10:55:24.559Z,5964
2017-03-15T10:56:24.591Z,10508
2017-03-15T10:57:24.607Z,8964
2017-03-15T10:58:24.660Z,8184
2017-03-15T10:59:24.675Z,7360
2017-03-15T11:00:24.832Z,6828
2017-03-15T11:01:24.772Z,6524
2017-03-15T11:02:24.809Z,6348
2017-03-15T11:03:24.848Z,6220
2017-03-15T11:04:24.863Z,6100
2017-03-15T11:05:25.002Z,5368
2017-03-15T11:06:24.948Z,6912
2017-03-15T11:07:24.980Z,7540
2017-03-15T11:08:25.015Z,7496
2017-03-15T11:09:25.060Z,7620
2017-03-15T11:10:25.238Z,8036
2017-03-15T11:11:25.104Z,9144
2017-03-15T11:12:25.155Z,9256
2017-03-15T11:13:25.186Z,8196
2017-03-15T11:14:25.230Z,5620
2017-03-15T11:15:25.364Z,6060
2017-03-15T11:16:25.292Z,6188
2017-03-15T11:17:25.330Z,5808
2017-03-15T11:18:25.372Z,5432
2017-03-15T11:19:25.403Z,5332
2017-03-15T11:20:25.780Z,5364
2017-03-15T11:21:25.462Z,5204
2017-03-15T11:22:25.507Z,5064
2017-03-15T11:23:25.543Z,5200
2017-03-15T11:24:25.555Z,5228
2017-03-15T11:25:25.609Z,6412
2017-03-15T11:26:25.639Z,6632
2017-03-15T11:27:25.678Z,5824
2017-03-15T11:28:25.704Z,5148
2017-03-15T11:29:25.749Z,4908
2017-03-15T11:30:25.784Z,4948
2017-03-15T11:31:25.815Z,5732
2017-03-15T11:32:25.862Z,5904
2017-03-15T11:33:25.896Z,5756
2017-03-15T11:34:25.927Z,5860
2017-03-15T11:35:25.953Z,5380
2017-03-15T11:36:25.994Z,5720
2017-03-15T11:37:26.036Z,5120
2017-03-15T11:38:26.071Z,4548
2017-03-15T11:39:26.082Z,4384
2017-03-15T11:40:26.107Z,4448
2017-03-15T11:41:26.155Z,5592
2017-03-15T11:42:26.227Z,6404
2017-03-15T11:43:26.247Z,6564
2017-03-15T11:44:26.253Z,5500
2017-03-15T11:45:26.299Z,4480
2017-03-15T11:46:26.334Z,4000
2017-03-15T11:47:26.375Z,3808
2017-03-15T11:48:26.403Z,3776
2017-03-15T11:49:26.458Z,3816
2017-03-15T11:50:26.572Z,3812
2017-03-15T11:51:26.516Z,4108
2017-03-15T11:52:26.550Z,4316
2017-03-15T11:53:26.585Z,4332
2017-03-15T11:54:26.629Z,4356
2017-03-15T11:55:26.759Z,3888
2017-03-15T11:56:26.687Z,3840
2017-03-15T11:57:26.706Z,3748
2017-03-15T11:58:26.759Z,3712
2017-03-15T11:59:26.794Z,3780
2017-03-15T12:00:27.199Z,3844
2017-03-15T12:01:26.848Z,3788
2017-03-15T12:02:26.883Z,3668
2017-03-15T12:03:26.927Z,3504
2017-03-15T12:04:26.970Z,3272
2017-03-15T12:05:27.301Z,3208
2017-03-15T12:06:27.035Z,3136
2017-03-15T12:07:27.053Z,3124
2017-03-15T12:08:27.098Z,3340
2017-03-15T12:09:27.131Z,3328
2017-03-15T12:10:27.170Z,3492
2017-03-15T12:11:27.193Z,3396
2017-03-15T12:12:27.227Z,4088
2017-03-15T12:13:27.260Z,3092
2017-03-15T12:14:27.301Z,2540
2017-03-15T12:15:27.341Z,3164
2017-03-15T12:16:27.353Z,3592
2017-03-15T12:17:27.405Z,3700
2017-03-15T12:18:27.429Z,3872
2017-03-15T12:19:27.473Z,3428
2017-03-15T12:20:27.486Z,3496
2017-03-15T12:21:27.532Z,3520
2017-03-15T12:22:27.559Z,3612
2017-03-15T12:23:27.604Z,4304
2017-03-15T12:24:27.613Z,4360
2017-03-15T12:25:27.669Z,4116
2017-03-15T12:26:27.694Z,4328
2017-03-15T12:27:27.735Z,4224
2017-03-15T12:28:27.768Z,3872
2017-03-15T12:29:27.799Z,3352
2017-03-15T12:30:27.825Z,2816
2017-03-15T12:31:27.871Z,2500
2017-03-15T12:32:27.893Z,2844
2017-03-15T12:33:27.926Z,2868
2017-03-15T12:34:27.964Z,3204
2017-03-15T12:35:28.009Z,3152
2017-03-15T12:36:28.032Z,2768
2017-03-15T12:37:28.058Z,2968
2017-03-15T12:38:28.107Z,2852
2017-03-15T12:39:28.134Z,2812
2017-03-15T12:40:28.153Z,2764
2017-03-15T12:41:28.194Z,2988
2017-03-15T12:42:28.236Z,2788
2017-03-15T12:43:28.259Z,2732
2017-03-15T12:44:28.282Z,2676
2017-03-15T12:45:28.322Z,2316
2017-03-15T12:46:28.710Z,2536
2017-03-15T12:47:28.414Z,2676
2017-03-15T12:48:28.423Z,2740
2017-03-15T12:49:28.462Z,3568
2017-03-15T12:50:28.463Z,3500
2017-03-15T12:51:28.514Z,3692
2017-03-15T12:52:28.561Z,3512
2017-03-15T12:53:28.572Z,3464
2017-03-15T12:54:28.623Z,3648
2017-03-15T12:55:28.664Z,3728
2017-03-15T12:56:28.941Z,4424
2017-03-15T12:57:28.721Z,4140
2017-03-15T12:58:28.765Z,3392
2017-03-15T12:59:28.785Z,2932
2017-03-15T13:00:28.821Z,3096
2017-03-15T13:01:28.958Z,3000
2017-03-15T13:02:28.886Z,3108
2017-03-15T13:03:28.918Z,3080
2017-03-15T13:04:28.950Z,3120
2017-03-15T13:05:29.028Z,3092
2017-03-15T13:06:29.565Z,2768
2017-03-15T13:07:29.042Z,2776
2017-03-15T13:08:29.065Z,3004
2017-03-15T13:09:29.088Z,2860
2017-03-15T13:10:29.589Z,2928
2017-03-15T13:11:29.384Z,3128
2017-03-15T13:12:29.217Z,2992
2017-03-15T13:13:29.818Z,2812
2017-03-15T13:14:29.261Z,3024
2017-03-15T13:15:29.306Z,3276
2017-03-15T13:16:29.337Z,3376
2017-03-15T13:17:29.362Z,3208
2017-03-15T13:18:29.405Z,3260
2017-03-15T13:19:29.441Z,2844
2017-03-15T13:20:29.469Z,2500
2017-03-15T13:21:29.504Z,2432
2017-03-15T13:22:29.536Z,2372
2017-03-15T13:23:29.570Z,2044
2017-03-15T13:24:29.596Z,2428
2017-03-15T13:25:29.741Z,2468
2017-03-15T13:26:29.670Z,2984
2017-03-15T13:27:29.693Z,3068
2017-03-15T13:28:29.730Z,2796
2017-03-15T13:29:29.768Z,2708
2017-03-15T13:30:29.808Z,2596
2017-03-15T13:31:29.835Z,2440
2017-03-15T13:32:29.869Z,2364
2017-03-15T13:33:29.884Z,2272
2017-03-15T13:34:29.923Z,2240
2017-03-15T13:35:30.063Z,2304
2017-03-15T13:36:29.996Z,2536
2017-03-15T13:37:30.020Z,2780
2017-03-15T13:38:30.069Z,3060
2017-03-15T13:39:30.097Z,2792
2017-03-15T13:40:30.136Z,2596
2017-03-15T13:41:30.168Z,2496
2017-03-15T13:42:30.185Z,2308
2017-03-15T13:44:09.890Z,2096
2017-03-15T13:44:39.597Z,2056
2017-03-15T13:45:38.997Z,2012
2017-03-15T13:46:39.023Z,1980
2017-03-15T13:47:39.057Z,1976
2017-03-15T13:48:39.102Z,1952
2017-03-15T13:49:39.138Z,1668
2017-03-15T13:50:39.159Z,1684
2017-03-15T13:51:39.224Z,1800